Time;durP1;ratioP1;P1;durP2;ratioP2;P2;SDS_P1;SDS_P2;PMS_P1;PMS_P2;Temp;Humidity;BMP_temperature;BMP_pressure;BME280_temperature;BME280_humidity;BME280_pressure;Samples;Min_cycle;Max_cycle;Signal;HPM_P1;HPM_P2
2023/03/04 00:01:38;;;;;;;;;;;;;;;19.41;33.40;95952.03;10475041;28;2588;-56
2023/03/04 00:06:48;;;;;;;;;;;;;;;19.37;33.33;95957.00;10477807;28;2332;-55
2023/03/04 00:11:49;;;;;;;;;;;;;;;19.34;33.25;95949.66;10480883;28;2620;-56
2023/03/04 00:16:50;;;;;;;;;;;;;;;19.34;33.45;95954.13;10464178;28;2643;-54
2023/03/04 00:21:51;;;;;;;;;;;;;;;19.30;33.15;95951.22;10473490;28;2600;-54
2023/03/04 00:26:51;;;;;;;;;;;;;;;19.28;33.28;95958.56;10458772;28;2302;-56
2023/03/04 00:31:53;;;;;;;;;;;;;;;19.26;33.16;95960.66;10478477;28;2293;-57
2023/03/04 00:36:53;;;;;;;;;;;;;;;19.24;33.05;95965.38;10449106;28;2607;-57
2023/03/04 00:41:54;;;;;;;;;;;;;;;19.22;33.13;95964.84;10471977;28;2607;-56
2023/03/04 00:46:54;;;;;;;;;;;;;;;19.20;33.02;95966.94;10465419;28;2378;-55
2023/03/04 00:51:54;;;;;;;;;;;;;;;19.17;33.01;95962.22;10464547;28;2623;-55
2023/03/04 00:56:54;;;;;;;;;;;;;;;19.14;33.09;95964.56;10465099;28;2604;-55
2023/03/04 01:01:55;;;;;;;;;;;;;;;19.12;33.06;95956.94;10459328;28;2607;-54
2023/03/04 01:07:01;;;;;;;;;;;;;;;19.11;32.93;95954.56;10463191;28;2724;-57
2023/03/04 01:12:02;;;;;;;;;;;;;;;19.08;32.91;95942.72;10473757;28;2327;-56
2023/03/04 01:17:03;;;;;;;;;;;;;;;19.06;33.07;95949.31;10473780;28;2578;-55
2023/03/04 01:22:04;;;;;;;;;;;;;;;19.04;32.84;95930.38;10466631;28;2662;-56
2023/03/04 01:27:04;;;;;;;;;;;;;;;19.02;32.79;95935.88;10470559;28;2630;-54
2023/03/04 01:32:04;;;;;;;;;;;;;;;19.01;32.76;95933.53;10468482;28;2539;-60
2023/03/04 01:37:05;;;;;;;;;;;;;;;18.98;32.76;95929.56;10470838;28;2377;-55
2023/03/04 01:42:05;;;;;;;;;;;;;;;18.96;32.82;95926.41;10468003;28;2659;-56
2023/03/04 01:47:08;;;;;;;;;;;;;;;18.95;32.68;95919.59;10464428;28;2336;-54
2023/03/04 01:52:11;;;;;;;;;;;;;;;18.94;32.66;95919.84;10470421;28;2625;-55
2023/03/04 01:57:15;;;;;;;;;;;;;;;18.91;32.69;95915.91;10469501;28;2265;-56
2023/03/04 02:02:15;;;;;;;;;;;;;;;18.89;32.43;95907.50;10470514;28;2614;-55
2023/03/04 02:07:16;;;;;;;;;;;;;;;18.88;32.54;95900.66;10473800;28;2501;-57
2023/03/04 02:12:21;;;;;;;;;;;;;;;18.85;32.66;95898.56;10462095;28;2672;-56
2023/03/04 02:17:25;;;;;;;;;;;;;;;18.84;32.63;95890.91;10462196;28;2299;-56
2023/03/04 02:22:26;;;;;;;;;;;;;;;18.81;32.51;95884.38;10473619;28;2333;-56
2023/03/04 02:27:26;;;;;;;;;;;;;;;18.80;32.52;95887.22;10461353;28;2360;-56
2023/03/04 02:32:26;;;;;;;;;;;;;;;18.79;32.37;95886.47;10448703;28;2587;-56
2023/03/04 02:37:27;;;;;;;;;;;;;;;18.77;32.37;95885.13;10477770;28;2532;-56
2023/03/04 02:42:28;;;;;;;;;;;;;;;18.74;32.40;95881.19;10465476;28;2611;-57
2023/03/04 02:47:28;;;;;;;;;;;;;;;18.74;32.37;95891.69;10464900;28;2748;-55
2023/03/04 02:52:28;;;;;;;;;;;;;;;18.74;32.32;95893.50;10463524;28;2255;-57
2023/03/04 02:57:29;;;;;;;;;;;;;;;18.70;32.31;95888.00;10467707;28;2398;-56
2023/03/04 03:02:29;;;;;;;;;;;;;;;18.69;32.31;95887.19;10461791;28;2508;-57
2023/03/04 03:07:29;;;;;;;;;;;;;;;18.66;32.13;95881.69;10470357;28;2513;-56
2023/03/04 03:12:30;;;;;;;;;;;;;;;18.65;32.28;95880.88;10480184;28;2946;-55
2023/03/04 03:17:41;;;;;;;;;;;;;;;18.64;32.23;95891.66;10449862;28;2262;-55
2023/03/04 03:22:41;;;;;;;;;;;;;;;18.63;32.26;95887.44;10465135;28;2317;-55
2023/03/04 03:27:42;;;;;;;;;;;;;;;18.60;32.17;95891.38;10459213;28;2540;-55
2023/03/04 03:32:43;;;;;;;;;;;;;;;18.60;32.11;95887.97;10462865;28;2650;-56
2023/03/04 03:37:44;;;;;;;;;;;;;;;18.58;32.11;95895.31;10465310;28;2599;-55
2023/03/04 03:42:45;;;;;;;;;;;;;;;18.56;32.06;95884.28;10461694;28;2281;-55
2023/03/04 03:47:46;;;;;;;;;;;;;;;18.55;32.14;95885.31;10462145;28;2365;-55
2023/03/04 03:52:47;;;;;;;;;;;;;;;18.54;32.12;95896.88;10459627;28;2328;-55
2023/03/04 03:57:48;;;;;;;;;;;;;;;18.52;32.08;95877.97;10465630;28;2286;-57
2023/03/04 04:02:48;;;;;;;;;;;;;;;18.51;31.99;95884.25;10466279;28;2659;-55
2023/03/04 04:07:48;;;;;;;;;;;;;;;18.49;32.07;95870.59;10481597;28;2641;-55
2023/03/04 04:12:49;;;;;;;;;;;;;;;18.48;32.01;95875.06;10470024;28;2630;-56
2023/03/04 04:17:49;;;;;;;;;;;;;;;18.47;32.07;95877.94;10453120;28;2571;-55
2023/03/04 04:22:49;;;;;;;;;;;;;;;18.46;32.01;95879.00;10467753;28;2606;-57
2023/03/04 04:27:49;;;;;;;;;;;;;;;18.44;31.92;95887.09;10455426;28;2714;-55
2023/03/04 04:32:50;;;;;;;;;;;;;;;18.43;31.88;95877.66;10466287;28;2610;-56
2023/03/04 04:37:52;;;;;;;;;;;;;;;18.43;31.96;95888.16;10487340;28;2622;-54
2023/03/04 04:42:52;;;;;;;;;;;;;;;18.39;31.96;95884.44;10471376;28;2588;-56
2023/03/04 04:47:53;;;;;;;;;;;;;;;18.37;31.97;95878.66;10469673;28;2260;-56
2023/03/04 04:52:53;;;;;;;;;;;;;;;18.37;31.85;95877.84;10468097;28;2608;-55
2023/03/04 04:57:54;;;;;;;;;;;;;;;18.36;31.78;95879.69;10469190;28;2604;-53
2023/03/04 05:02:54;;;;;;;;;;;;;;;18.35;31.79;95886.00;10473508;28;2264;-55
2023/03/04 05:07:55;;;;;;;;;;;;;;;18.34;31.88;95878.38;10479189;28;2536;-55
2023/03/04 05:12:55;;;;;;;;;;;;;;;18.36;31.95;95887.56;10474566;28;2624;-56
2023/03/04 05:17:56;;;;;;;;;;;;;;;18.44;31.78;95888.97;10469689;28;2526;-55
2023/03/04 05:22:57;;;;;;;;;;;;;;;18.51;31.87;95886.88;10473693;28;2345;-56
2023/03/04 05:27:57;;;;;;;;;;;;;;;18.60;31.81;95883.50;10472689;28;2268;-56
2023/03/04 05:32:57;;;;;;;;;;;;;;;18.69;31.68;95887.19;10465493;28;2254;-55
2023/03/04 05:37:58;;;;;;;;;;;;;;;18.78;31.54;95884.88;10469328;28;2685;-56
2023/03/04 05:43:03;;;;;;;;;;;;;;;18.85;31.43;95882.78;10456474;28;2674;-56
2023/03/04 05:48:03;;;;;;;;;;;;;;;18.91;31.29;95889.63;10470423;28;2320;-54
2023/03/04 05:53:14;;;;;;;;;;;;;;;19.01;31.28;95889.66;10466703;28;2562;-53
2023/03/04 05:58:14;;;;;;;;;;;;;;;19.04;31.11;95897.00;10465876;28;2622;-55
2023/03/04 06:03:24;;;;;;;;;;;;;;;19.10;30.95;95889.94;10463786;28;2674;-56
2023/03/04 06:08:26;;;;;;;;;;;;;;;19.14;30.85;95904.94;10472999;28;2250;-56
2023/03/04 06:13:27;;;;;;;;;;;;;;;19.17;30.68;95909.66;10467171;28;2548;-56
2023/03/04 06:18:27;;;;;;;;;;;;;;;19.20;30.81;95906.50;10470972;28;2554;-56
2023/03/04 06:23:28;;;;;;;;;;;;;;;19.23;30.72;95907.81;10480409;28;2635;-56
2023/03/04 06:28:29;;;;;;;;;;;;;;;19.25;30.73;95916.22;10472967;28;2603;-56
2023/03/04 06:33:29;;;;;;;;;;;;;;;19.27;30.65;95916.75;10473001;28;2595;-56
2023/03/04 06:38:30;;;;;;;;;;;;;;;19.27;30.63;95925.44;10476447;28;2935;-55
2023/03/04 06:43:30;;;;;;;;;;;;;;;19.28;30.63;95924.41;10450780;28;2556;-55
2023/03/04 06:48:31;;;;;;;;;;;;;;;19.31;30.56;95931.75;10466759;28;2606;-56
2023/03/04 06:53:31;;;;;;;;;;;;;;;19.34;30.58;95931.25;10479846;28;2595;-57
2023/03/04 06:58:31;;;;;;;;;;;;;;;19.37;30.46;95935.97;10483401;28;2599;-56
2023/03/04 07:03:32;;;;;;;;;;;;;;;19.38;30.55;95937.56;10470576;28;2313;-56
2023/03/04 07:08:32;;;;;;;;;;;;;;;19.41;30.47;95944.94;10466028;28;2313;-56
2023/03/04 07:13:36;;;;;;;;;;;;;;;19.43;30.50;95940.19;10466627;28;2591;-54
2023/03/04 07:18:37;;;;;;;;;;;;;;;19.45;30.29;95942.59;10459017;28;2611;-57
2023/03/04 07:23:38;;;;;;;;;;;;;;;19.49;30.42;95938.38;10450747;28;2424;-56
2023/03/04 07:28:38;;;;;;;;;;;;;;;19.51;30.41;95949.44;10468542;28;2580;-53
2023/03/04 07:33:38;;;;;;;;;;;;;;;19.53;30.25;95954.41;10465768;28;2332;-55
2023/03/04 07:38:41;;;;;;;;;;;;;;;19.54;30.25;95961.25;10449905;28;2544;-54
2023/03/04 07:43:42;;;;;;;;;;;;;;;19.55;30.08;95962.84;10474855;28;2520;-55
2023/03/04 07:48:42;;;;;;;;;;;;;;;19.61;29.77;95972.31;10487974;28;2594;-55
2023/03/04 07:53:44;;;;;;;;;;;;;;;19.61;29.78;95982.81;10484025;28;2597;-55
2023/03/04 07:58:44;;;;;;;;;;;;;;;19.61;30.04;95985.44;10479384;28;2532;-55
2023/03/04 08:03:45;;;;;;;;;;;;;;;19.66;29.83;95996.00;10460247;28;2683;-57
2023/03/04 08:08:46;;;;;;;;;;;;;;;19.67;30.11;95987.81;10494216;28;2316;-55
2023/03/04 08:13:47;;;;;;;;;;;;;;;19.68;29.90;95999.16;10456237;28;2658;-54
2023/03/04 08:18:50;;;;;;;;;;;;;;;19.65;30.26;95995.19;10465879;28;2508;-55
2023/03/04 08:23:51;;;;;;;;;;;;;;;19.64;30.35;95992.84;10461270;28;2587;-56
2023/03/04 08:28:52;;;;;;;;;;;;;;;19.62;30.27;95992.31;10471100;28;2571;-54
2023/03/04 08:33:53;;;;;;;;;;;;;;;19.60;30.73;95991.78;10469930;28;2591;-54
2023/03/04 08:38:53;;;;;;;;;;;;;;;19.57;31.02;95993.09;10473654;28;2615;-50
2023/03/04 08:43:54;;;;;;;;;;;;;;;19.53;31.76;95996.47;10474151;28;2524;-51
2023/03/04 08:48:55;;;;;;;;;;;;;;;19.52;31.68;95992.25;10475239;28;2606;-53
2023/03/04 08:53:55;;;;;;;;;;;;;;;19.49;31.66;95997.00;10491776;28;2336;-53
2023/03/04 08:58:56;;;;;;;;;;;;;;;19.44;31.96;95994.38;10453673;28;2580;-53
2023/03/04 09:03:56;;;;;;;;;;;;;;;19.42;32.31;95991.22;10468573;28;2273;-50
2023/03/04 09:08:56;;;;;;;;;;;;;;;19.44;33.41;95983.84;10475131;28;2577;-53
2023/03/04 09:13:57;;;;;;;;;;;;;;;19.44;33.60;95978.59;10475616;28;2366;-56
2023/03/04 09:18:58;;;;;;;;;;;;;;;19.44;33.59;95981.22;10471885;28;2273;-53
2023/03/04 09:23:59;;;;;;;;;;;;;;;19.42;33.35;95974.63;10471151;28;2328;-51
2023/03/04 09:28:59;;;;;;;;;;;;;;;19.41;33.42;95976.47;10459875;28;3046;-50
2023/03/04 09:34:00;;;;;;;;;;;;;;;19.39;33.34;95970.69;10476875;28;2566;-52
2023/03/04 09:39:01;;;;;;;;;;;;;;;19.34;33.47;95983.84;10472087;28;2607;-52
2023/03/04 09:44:03;;;;;;;;;;;;;;;19.34;33.40;95983.84;10462283;28;2607;-51
2023/03/04 09:49:03;;;;;;;;;;;;;;;19.33;33.16;95979.63;10466058;28;2537;-49
2023/03/04 09:54:14;;;;;;;;;;;;;;;19.29;33.26;95980.34;10474863;28;2819;-52
2023/03/04 09:59:14;;;;;;;;;;;;;;;19.27;33.41;95971.94;10455436;28;2951;-52
2023/03/04 10:04:24;;;;;;;;;;;;;;;19.27;33.42;95971.94;10451417;28;2818;-50
2023/03/04 10:09:26;;;;;;;;;;;;;;;19.22;33.52;95962.22;10464405;28;2843;-53
2023/03/04 10:14:27;;;;;;;;;;;;;;;19.22;33.62;95964.06;10469471;28;2340;-53
2023/03/04 10:19:36;;;;;;;;;;;;;;;19.21;33.49;95957.22;10469064;28;2838;-53
2023/03/04 10:24:37;;;;;;;;;;;;;;;19.20;33.76;95947.75;10472299;28;2268;-50
2023/03/04 10:29:38;;;;;;;;;;;;;;;19.20;33.66;95945.13;10470985;28;2826;-53
2023/03/04 10:34:38;;;;;;;;;;;;;;;19.20;33.57;95948.56;10473346;28;2948;-53
2023/03/04 10:39:39;;;;;;;;;;;;;;;19.20;33.51;95945.94;10472182;28;2825;-54
2023/03/04 10:44:51;;;;;;;;;;;;;;;19.20;33.67;95945.94;10476460;28;3212;-53
2023/03/04 10:49:57;;;;;;;;;;;;;;;19.13;33.79;95934.88;10463199;28;2906;-54
2023/03/04 10:54:59;;;;;;;;;;;;;;;19.11;33.63;95930.91;10460343;28;2865;-51
2023/03/04 11:00:00;;;;;;;;;;;;;;;19.08;33.54;95929.59;10466717;28;2886;-55
2023/03/04 11:05:16;;;;;;;;;;;;;;;19.08;33.43;95928.81;10446546;28;2953;-52
2023/03/04 11:10:20;;;;;;;;;;;;;;;19.05;33.37;95922.25;10459669;28;2822;-52
2023/03/04 11:15:26;;;;;;;;;;;;;;;19.03;33.42;95921.72;10467236;28;2829;-52
2023/03/04 11:20:38;;;;;;;;;;;;;;;19.04;33.39;95925.13;10484786;28;2837;-54
2023/03/04 11:25:43;;;;;;;;;;;;;;;19.01;33.69;95920.38;10472450;28;2877;-53
2023/03/04 11:30:49;;;;;;;;;;;;;;;18.98;33.66;95919.06;10455548;28;2798;-54
2023/03/04 11:35:52;;;;;;;;;;;;;;;18.97;33.46;95919.31;10454778;28;2902;-54
2023/03/04 11:40:53;;;;;;;;;;;;;;;18.97;33.41;95917.50;10468522;28;2271;-53
2023/03/04 11:45:58;;;;;;;;;;;;;;;18.98;33.31;95918.28;10463111;28;2267;-53
2023/03/04 11:50:58;;;;;;;;;;;;;;;19.00;33.33;95911.72;10471777;28;2822;-54
2023/03/04 11:56:11;;;;;;;;;;;;;;;18.99;33.39;95907.50;10473588;28;2343;-53
2023/03/04 12:01:31;;;;;;;;;;;;;;;18.98;33.35;95900.66;10451079;28;2882;-52
2023/03/04 12:06:50;;;;;;;;;;;;;;;18.98;33.32;95898.03;10468944;28;2275;-54
2023/03/04 12:12:11;;;;;;;;;;;;;;;18.95;33.36;95888.06;10468305;28;2874;-52
2023/03/04 12:17:30;;;;;;;;;;;;;;;18.94;33.35;95878.59;10457228;28;2283;-54
2023/03/04 12:22:33;;;;;;;;;;;;;;;18.95;33.42;95874.94;10472774;28;2908;-54
2023/03/04 12:27:54;;;;;;;;;;;;;;;18.96;33.35;95865.22;10448166;28;2843;-52
2023/03/04 12:33:14;;;;;;;;;;;;;;;18.94;33.43;95856.81;10476888;28;2326;-52
2023/03/04 12:38:33;;;;;;;;;;;;;;;18.94;33.32;95854.94;10473153;28;2244;-55
2023/03/04 12:43:51;;;;;;;;;;;;;;;18.95;33.36;95842.63;10446704;28;2921;-52
2023/03/04 12:48:55;;;;;;;;;;;;;;;18.93;33.34;95844.72;10471499;28;2861;-53
2023/03/04 12:54:02;;;;;;;;;;;;;;;18.97;33.48;95845.78;10454280;28;2889;-52
2023/03/04 12:59:02;;;;;;;;;;;;;;;18.93;33.72;95845.50;10471033;28;2783;-48
2023/03/04 13:04:02;;;;;;;;;;;;;;;18.96;33.61;95836.31;10468585;28;2842;-54
2023/03/04 13:09:20;;;;;;;;;;;;;;;18.96;33.72;95828.44;10482444;28;2899;-52
2023/03/04 13:14:22;;;;;;;;;;;;;;;18.98;33.58;95823.72;10470511;28;2904;-53
2023/03/04 13:19:41;;;;;;;;;;;;;;;18.99;33.88;95827.91;10475802;28;2862;-55
2023/03/04 13:24:45;;;;;;;;;;;;;;;19.01;33.75;95825.81;10470993;28;2893;-50
2023/03/04 13:29:45;;;;;;;;;;;;;;;19.01;33.54;95818.72;10471984;28;2799;-51
2023/03/04 13:34:46;;;;;;;;;;;;;;;19.03;34.31;95815.81;10473103;28;2322;-51
2023/03/04 13:39:47;;;;;;;;;;;;;;;19.03;34.62;95815.81;10465157;28;2877;-52
2023/03/04 13:44:50;;;;;;;;;;;;;;;19.06;34.89;95810.84;10455387;28;2862;-50
2023/03/04 13:50:11;;;;;;;;;;;;;;;19.10;34.49;95813.75;10469950;28;2834;-53
2023/03/04 13:55:35;;;;;;;;;;;;;;;19.10;34.81;95811.13;10476524;28;2885;-53
2023/03/04 14:00:37;;;;;;;;;;;;;;;19.09;34.96;95806.91;10467107;28;2834;-52
2023/03/04 14:05:38;;;;;;;;;;;;;;;19.09;35.07;95807.69;10450512;28;2793;-54
2023/03/04 14:10:38;;;;;;;;;;;;;;;19.09;35.09;95799.81;10468473;28;2855;-54
2023/03/04 14:15:39;;;;;;;;;;;;;;;19.10;35.24;95803.22;10445463;28;3015;-54
2023/03/04 14:20:41;;;;;;;;;;;;;;;19.06;35.10;95805.56;10468091;28;2870;-54
2023/03/04 14:25:41;;;;;;;;;;;;;;;19.04;35.19;95794.53;10437831;28;2755;-55
2023/03/04 14:30:42;;;;;;;;;;;;;;;19.01;35.37;95791.66;10461315;28;2289;-48
2023/03/04 14:35:47;;;;;;;;;;;;;;;19.01;35.58;95791.66;10460507;28;2829;-53
2023/03/04 14:40:48;;;;;;;;;;;;;;;18.98;35.51;95790.34;10463221;28;2909;-50
2023/03/04 14:45:50;;;;;;;;;;;;;;;18.99;35.42;95791.94;10449039;28;2443;-52
2023/03/04 14:50:51;;;;;;;;;;;;;;;19.06;35.31;95792.44;10462664;28;3013;-53
2023/03/04 14:55:58;;;;;;;;;;;;;;;19.12;35.10;95796.66;10464638;28;2885;-52
2023/03/04 15:01:17;;;;;;;;;;;;;;;19.19;35.26;95799.81;10475808;28;2911;-52
2023/03/04 15:06:19;;;;;;;;;;;;;;;19.24;34.95;95788.50;10467467;28;2896;-53
2023/03/04 15:11:21;;;;;;;;;;;;;;;19.30;34.99;95783.00;10452966;28;2460;-53
2023/03/04 15:16:51;;;;;;;;;;;;;;;19.35;34.90;95785.63;10462310;28;3040;-52
2023/03/04 15:22:11;;;;;;;;;;;;;;;19.41;35.01;95778.56;10466297;28;2826;-49
2023/03/04 15:27:23;;;;;;;;;;;;;;;19.44;34.82;95780.63;10462072;28;2263;-53
2023/03/04 15:32:33;;;;;;;;;;;;;;;19.47;34.62;95786.13;10458931;28;2869;-54
2023/03/04 15:37:41;;;;;;;;;;;;;;;19.47;34.68;95786.13;10465903;28;2869;-51
2023/03/04 15:42:54;;;;;;;;;;;;;;;19.48;34.61;95787.72;10458186;28;2885;-50
2023/03/04 15:47:56;;;;;;;;;;;;;;;19.48;34.61;95784.31;10483838;28;3002;-52
2023/03/04 15:53:07;;;;;;;;;;;;;;;19.53;34.45;95791.41;10474383;28;2897;-51
2023/03/04 15:58:09;;;;;;;;;;;;;;;19.56;34.78;95789.03;10461318;28;2945;-52
2023/03/04 16:03:19;;;;;;;;;;;;;;;19.59;35.05;95798.22;10474134;28;2332;-52
2023/03/04 16:08:20;;;;;;;;;;;;;;;19.64;34.92;95798.22;10491539;28;2873;-49
2023/03/04 16:13:21;;;;;;;;;;;;;;;19.67;35.21;95803.75;10485575;28;2903;-53
2023/03/04 16:18:22;;;;;;;;;;;;;;;19.71;34.96;95799.53;10478996;28;3292;-51
2023/03/04 16:23:24;;;;;;;;;;;;;;;19.74;35.40;95803.47;10484331;28;2988;-51
2023/03/04 16:28:24;;;;;;;;;;;;;;;19.77;34.98;95797.66;10491549;28;2320;-51
2023/03/04 16:33:25;;;;;;;;;;;;;;;19.79;35.18;95806.88;10484898;28;2303;-51
2023/03/04 16:38:26;;;;;;;;;;;;;;;19.84;34.99;95808.69;10482104;28;2307;-48
2023/03/04 16:43:27;;;;;;;;;;;;;;;19.86;34.95;95812.66;10472828;28;2398;-51
2023/03/04 16:48:28;;;;;;;;;;;;;;;19.85;34.94;95813.69;10486425;28;2321;-52
2023/03/04 16:53:32;;;;;;;;;;;;;;;19.87;34.67;95821.31;10478402;28;2900;-49
2023/03/04 16:58:33;;;;;;;;;;;;;;;19.89;34.65;95829.72;10478727;28;2914;-52
2023/03/04 17:03:33;;;;;;;;;;;;;;;19.88;34.50;95831.59;10480192;28;3040;-54
2023/03/04 17:08:34;;;;;;;;;;;;;;;19.90;34.49;95839.19;10472870;28;2335;-50
2023/03/04 17:13:34;;;;;;;;;;;;;;;19.95;34.62;95849.69;10479409;28;2906;-54
2023/03/04 17:18:34;;;;;;;;;;;;;;;19.97;34.24;95850.25;10472890;28;3049;-52
2023/03/04 17:23:35;;;;;;;;;;;;;;;19.99;33.87;95856.78;10471253;28;2321;-51
2023/03/04 17:28:35;;;;;;;;;;;;;;;20.01;33.97;95859.19;10473073;28;2921;-59
2023/03/04 17:33:35;;;;;;;;;;;;;;;20.04;33.86;95871.78;10486724;28;2881;-55
2023/03/04 17:38:36;;;;;;;;;;;;;;;20.08;33.74;95875.47;10484048;28;2867;-52
2023/03/04 17:43:37;;;;;;;;;;;;;;;20.11;33.33;95883.59;10487823;28;2826;-54
2023/03/04 17:48:38;;;;;;;;;;;;;;;20.13;33.38;95886.75;10477095;28;2885;-51
2023/03/04 17:53:39;;;;;;;;;;;;;;;20.18;33.03;95894.66;10478321;28;2917;-52
2023/03/04 17:58:40;;;;;;;;;;;;;;;20.23;32.97;95891.25;10484155;28;2862;-53
2023/03/04 18:03:41;;;;;;;;;;;;;;;20.22;32.73;95895.72;10475146;28;2802;-51
2023/03/04 18:08:41;;;;;;;;;;;;;;;20.23;33.81;95896.50;10482201;28;2865;-56
2023/03/04 18:13:41;;;;;;;;;;;;;;;20.19;33.65;95900.72;10485743;28;2985;-52
2023/03/04 18:18:42;;;;;;;;;;;;;;;20.21;33.68;95909.16;10479908;28;2387;-52
2023/03/04 18:23:42;;;;;;;;;;;;;;;20.22;33.77;95911.50;10439884;28;2598;-51
2023/03/04 18:28:43;;;;;;;;;;;;;;;20.24;34.18;95905.97;10472181;28;2315;-54
2023/03/04 18:33:43;;;;;;;;;;;;;;;20.25;34.18;95910.19;10478568;28;2858;-51
2023/03/04 18:38:43;;;;;;;;;;;;;;;20.25;34.73;95918.09;10477504;28;2855;-53
2023/03/04 18:43:54;;;;;;;;;;;;;;;20.27;34.16;95913.34;10483226;28;3140;-54
2023/03/04 18:48:55;;;;;;;;;;;;;;;20.26;34.48;95919.66;10469262;28;2803;-53
2023/03/04 18:53:56;;;;;;;;;;;;;;;20.24;34.01;95913.88;10486214;28;2830;-51
2023/03/04 18:58:56;;;;;;;;;;;;;;;20.23;33.66;95917.56;10458265;28;2985;-51
2023/03/04 19:03:58;;;;;;;;;;;;;;;20.19;34.39;95921.78;10468661;28;2886;-54
2023/03/04 19:08:58;;;;;;;;;;;;;;;20.18;34.28;95928.06;10477737;28;2418;-54
2023/03/04 19:13:58;;;;;;;;;;;;;;;20.15;34.57;95933.88;10475024;28;2890;-53
2023/03/04 19:18:59;;;;;;;;;;;;;;;20.14;34.11;95929.66;10480229;28;2922;-59
2023/03/04 19:24:00;;;;;;;;;;;;;;;20.15;34.26;95939.16;10476607;28;2340;-53
2023/03/04 19:29:01;;;;;;;;;;;;;;;20.14;35.23;95932.28;10481075;28;2902;-52
2023/03/04 19:34:02;;;;;;;;;;;;;;;20.16;33.98;95933.59;10485304;28;2310;-53
2023/03/04 19:39:03;;;;;;;;;;;;;;;20.15;33.65;95931.25;10475647;28;2869;-53
2023/03/04 19:44:03;;;;;;;;;;;;;;;20.14;34.22;95935.72;10485867;28;2940;-51
2023/03/04 19:49:04;;;;;;;;;;;;;;;20.16;33.54;95935.44;10478190;28;2325;-54
2023/03/04 19:54:04;;;;;;;;;;;;;;;20.18;33.46;95928.88;10481626;28;2315;-52
2023/03/04 19:59:05;;;;;;;;;;;;;;;20.18;33.55;95931.50;10487320;28;2459;-52
2023/03/04 20:04:07;;;;;;;;;;;;;;;20.22;33.81;95923.88;10479815;28;2905;-50
2023/03/04 20:09:17;;;;;;;;;;;;;;;20.24;34.02;95930.47;10493993;28;2885;-52
2023/03/04 20:14:18;;;;;;;;;;;;;;;20.22;33.82;95931.78;10489319;28;2952;-57
2023/03/04 20:19:18;;;;;;;;;;;;;;;20.21;33.30;95935.47;10482183;28;2444;-56
2023/03/04 20:24:21;;;;;;;;;;;;;;;20.19;33.17;95932.28;10476063;28;2890;-53
2023/03/04 20:29:23;;;;;;;;;;;;;;;20.17;33.27;95923.88;10485589;28;2872;-55
2023/03/04 20:34:25;;;;;;;;;;;;;;;20.14;33.54;95924.41;10464358;28;2930;-49
2023/03/04 20:39:26;;;;;;;;;;;;;;;20.14;33.49;95929.66;10476422;28;2935;-58
2023/03/04 20:44:26;;;;;;;;;;;;;;;20.14;34.19;95925.19;10472777;28;3245;-56
2023/03/04 20:49:26;;;;;;;;;;;;;;;20.14;33.96;95921.75;10478077;28;2315;-51
2023/03/04 20:54:28;;;;;;;;;;;;;;;20.13;34.01;95917.56;10472730;28;2763;-51
2023/03/04 20:59:38;;;;;;;;;;;;;;;20.10;34.22;95911.00;10485899;28;2362;-50
2023/03/04 21:04:39;;;;;;;;;;;;;;;20.06;33.66;95912.56;10486557;28;3216;-50
2023/03/04 21:09:39;;;;;;;;;;;;;;;20.05;33.81;95910.22;10491266;28;3002;-50
2023/03/04 21:14:39;;;;;;;;;;;;;;;20.03;33.38;95901.81;10485210;28;2881;-52
2023/03/04 21:19:43;;;;;;;;;;;;;;;20.00;33.48;95900.47;10484157;28;2787;-50
2023/03/04 21:24:43;;;;;;;;;;;;;;;20.01;33.75;95896.00;10485075;28;2884;-52
2023/03/04 21:29:44;;;;;;;;;;;;;;;20.00;33.98;95889.16;10464174;28;2797;-52
2023/03/04 21:34:45;;;;;;;;;;;;;;;19.99;33.59;95891.00;10452716;28;2870;-51
2023/03/04 21:39:45;;;;;;;;;;;;;;;19.95;33.50;95876.00;10481967;28;2869;-51
2023/03/04 21:44:46;;;;;;;;;;;;;;;19.98;33.53;95870.22;10451654;28;2854;-50
2023/03/04 21:49:46;;;;;;;;;;;;;;;19.95;33.49;95873.38;10472088;28;2332;-50
2023/03/04 21:54:48;;;;;;;;;;;;;;;19.93;33.33;95860.50;10473814;28;2806;-48
2023/03/04 21:59:49;;;;;;;;;;;;;;;19.94;34.15;95854.19;10463878;28;2321;-50
2023/03/04 22:04:49;;;;;;;;;;;;;;;19.90;33.84;95849.72;10452490;28;2413;-52
2023/03/04 22:09:53;;;;;;;;;;;;;;;19.88;33.71;95843.94;10477715;28;2873;-52
2023/03/04 22:14:53;;;;;;;;;;;;;;;19.85;33.76;95845.25;10473375;28;2929;-51
2023/03/04 22:19:54;;;;;;;;;;;;;;;19.82;33.88;95842.38;10468747;28;2899;-50
2023/03/04 22:24:54;;;;;;;;;;;;;;;19.79;33.82;95842.91;10451858;28;2945;-52
2023/03/04 22:29:56;;;;;;;;;;;;;;;19.76;34.02;95846.06;10467126;28;2877;-50
2023/03/04 22:34:56;;;;;;;;;;;;;;;19.74;34.01;95842.91;10471788;28;2851;-53
2023/03/04 22:39:57;;;;;;;;;;;;;;;19.72;34.16;95842.41;10465164;28;2361;-53
2023/03/04 22:44:58;;;;;;;;;;;;;;;19.68;34.24;95841.34;10464395;28;2846;-54
2023/03/04 22:49:59;;;;;;;;;;;;;;;19.66;34.29;95843.47;10458678;28;2905;-52
2023/03/04 22:54:59;;;;;;;;;;;;;;;19.65;33.96;95852.38;10470398;28;2862;-54
2023/03/04 22:59:59;;;;;;;;;;;;;;;19.62;34.12;95842.41;10462400;28;2802;-52
2023/03/04 23:04:59;;;;;;;;;;;;;;;19.60;34.07;95839.25;10459664;28;2821;-54
2023/03/04 23:10:00;;;;;;;;;;;;;;;19.57;34.29;95847.66;10455240;28;2826;-49
2023/03/04 23:15:01;;;;;;;;;;;;;;;19.55;34.05;95847.94;10475972;28;2281;-53
2023/03/04 23:20:02;;;;;;;;;;;;;;;19.53;34.24;95855.31;10463626;28;2909;-55
2023/03/04 23:25:02;;;;;;;;;;;;;;;19.51;34.03;95843.47;10463474;28;2310;-54
2023/03/04 23:30:04;;;;;;;;;;;;;;;19.49;34.27;95835.84;10473832;28;2795;-54
2023/03/04 23:35:15;;;;;;;;;;;;;;;19.47;34.14;95832.69;10464181;28;2814;-54
2023/03/04 23:40:15;;;;;;;;;;;;;;;19.45;34.14;95829.53;10458575;28;2908;-54
2023/03/04 23:45:16;;;;;;;;;;;;;;;19.42;34.15;95817.72;10464474;28;2265;-53
2023/03/04 23:50:16;;;;;;;;;;;;;;;19.40;34.37;95811.94;10461256;28;2391;-57
2023/03/04 23:55:17;;;;;;;;;;;;;;;19.39;34.35;95823.47;10448633;28;2842;-55
